sensor_id;sensor_type;location;lat;lon;timestamp;pressure;altitude;pressure_sealevel;temperature;humidity
2339;BME280;1180;51.438;6.978;2023-04-10T00:00:49;100893.31;;;12.40;56.26
2339;BME280;1180;51.438;6.978;2023-04-10T00:03:21;100882.81;;;12.43;56.07
2339;BME280;1180;51.438;6.978;2023-04-10T00:05:48;100893.78;;;12.47;56.18
2339;BME280;1180;51.438;6.978;2023-04-10T00:08:13;100887.72;;;12.48;56.38
2339;BME280;1180;51.438;6.978;2023-04-10T00:10:38;100885.81;;;12.35;56.60
2339;BME280;1180;51.438;6.978;2023-04-10T00:13:04;100890.00;;;12.52;56.02
2339;BME280;1180;51.438;6.978;2023-04-10T00:15:29;100874.69;;;12.51;55.95
2339;BME280;1180;51.438;6.978;2023-04-10T00:17:55;100877.44;;;12.48;56.33
2339;BME280;1180;51.438;6.978;2023-04-10T00:20:21;100874.13;;;12.46;56.24
2339;BME280;1180;51.438;6.978;2023-04-10T00:22:48;100867.25;;;12.30;56.67
2339;BME280;1180;51.438;6.978;2023-04-10T00:25:14;100864.91;;;12.25;56.81
2339;BME280;1180;51.438;6.978;2023-04-10T00:27:39;100860.06;;;12.21;57.19
2339;BME280;1180;51.438;6.978;2023-04-10T00:30:06;100857.69;;;12.02;57.55
2339;BME280;1180;51.438;6.978;2023-04-10T00:32:31;100853.84;;;12.09;57.63
2339;BME280;1180;51.438;6.978;2023-04-10T00:34:57;100842.84;;;12.21;57.41
2339;BME280;1180;51.438;6.978;2023-04-10T00:37:22;100848.09;;;12.20;57.18
2339;BME280;1180;51.438;6.978;2023-04-10T00:39:48;100845.75;;;12.31;57.00
2339;BME280;1180;51.438;6.978;2023-04-10T00:42:13;100845.44;;;12.21;57.04
2339;BME280;1180;51.438;6.978;2023-04-10T00:44:39;100843.28;;;12.30;56.92
2339;BME280;1180;51.438;6.978;2023-04-10T00:47:06;100843.38;;;12.12;57.22
2339;BME280;1180;51.438;6.978;2023-04-10T00:49:33;100841.56;;;11.98;58.00
2339;BME280;1180;51.438;6.978;2023-04-10T00:51:58;100839.22;;;12.09;57.68
2339;BME280;1180;51.438;6.978;2023-04-10T00:54:25;100836.97;;;12.19;57.66
2339;BME280;1180;51.438;6.978;2023-04-10T00:56:51;100835.28;;;12.04;57.86
2339;BME280;1180;51.438;6.978;2023-04-10T00:59:16;100830.84;;;12.22;57.59
2339;BME280;1180;51.438;6.978;2023-04-10T01:01:42;100835.56;;;12.30;57.21
2339;BME280;1180;51.438;6.978;2023-04-10T01:04:08;100832.06;;;12.31;57.20
2339;BME280;1180;51.438;6.978;2023-04-10T01:06:54;100833.34;;;12.38;56.78
2339;BME280;1180;51.438;6.978;2023-04-10T01:12:11;100833.53;;;12.35;56.72
2339;BME280;1180;51.438;6.978;2023-04-10T01:15:14;100833.72;;;12.32;56.90
2339;BME280;1180;51.438;6.978;2023-04-10T01:20:19;100824.72;;;12.39;56.90
2339;BME280;1180;51.438;6.978;2023-04-10T01:25:42;100825.19;;;12.15;57.55
2339;BME280;1180;51.438;6.978;2023-04-10T01:30:46;100810.81;;;12.27;57.75
2339;BME280;1180;51.438;6.978;2023-04-10T01:33:17;100809.50;;;12.20;57.98
2339;BME280;1180;51.438;6.978;2023-04-10T01:35:46;100806.28;;;12.16;58.01
2339;BME280;1180;51.438;6.978;2023-04-10T01:38:16;100806.63;;;12.10;57.95
2339;BME280;1180;51.438;6.978;2023-04-10T01:40:43;100797.59;;;12.03;58.40
2339;BME280;1180;51.438;6.978;2023-04-10T01:43:16;100795.09;;;12.01;58.65
2339;BME280;1180;51.438;6.978;2023-04-10T01:45:42;100793.94;;;12.07;58.59
2339;BME280;1180;51.438;6.978;2023-04-10T01:48:11;100794.59;;;12.10;58.55
2339;BME280;1180;51.438;6.978;2023-04-10T01:50:37;100789.28;;;12.13;58.61
2339;BME280;1180;51.438;6.978;2023-04-10T01:53:05;100787.16;;;12.20;58.31
2339;BME280;1180;51.438;6.978;2023-04-10T01:55:32;100788.44;;;12.13;58.39
2339;BME280;1180;51.438;6.978;2023-04-10T01:57:59;100793.06;;;12.22;58.63
2339;BME280;1180;51.438;6.978;2023-04-10T02:00:26;100784.81;;;12.32;57.88
2339;BME280;1180;51.438;6.978;2023-04-10T02:02:51;100779.94;;;12.27;57.83
2339;BME280;1180;51.438;6.978;2023-04-10T02:05:17;100788.38;;;12.29;57.81
2339;BME280;1180;51.438;6.978;2023-04-10T02:07:55;100793.53;;;12.29;58.16
2339;BME280;1180;51.438;6.978;2023-04-10T02:10:41;100796.94;;;12.30;58.17
2339;BME280;1180;51.438;6.978;2023-04-10T02:13:10;100785.91;;;12.27;58.27
2339;BME280;1180;51.438;6.978;2023-04-10T02:15:41;100786.53;;;12.17;58.16
2339;BME280;1180;51.438;6.978;2023-04-10T02:18:09;100781.47;;;12.15;58.69
2339;BME280;1180;51.438;6.978;2023-04-10T02:20:35;100785.16;;;12.25;58.73
2339;BME280;1180;51.438;6.978;2023-04-10T02:23:01;100777.44;;;12.25;58.51
2339;BME280;1180;51.438;6.978;2023-04-10T02:25:31;100774.75;;;12.12;58.69
2339;BME280;1180;51.438;6.978;2023-04-10T02:27:57;100768.41;;;12.18;58.78
2339;BME280;1180;51.438;6.978;2023-04-10T02:30:23;100770.25;;;12.16;58.50
2339;BME280;1180;51.438;6.978;2023-04-10T02:32:49;100765.09;;;12.16;58.46
2339;BME280;1180;51.438;6.978;2023-04-10T02:35:14;100767.59;;;12.18;57.89
2339;BME280;1180;51.438;6.978;2023-04-10T02:37:40;100765.75;;;12.20;57.83
2339;BME280;1180;51.438;6.978;2023-04-10T02:40:07;100769.34;;;12.17;58.00
2339;BME280;1180;51.438;6.978;2023-04-10T02:42:32;100772.00;;;12.16;58.37
2339;BME280;1180;51.438;6.978;2023-04-10T02:44:58;100768.69;;;12.13;58.49
2339;BME280;1180;51.438;6.978;2023-04-10T02:47:23;100772.84;;;12.00;58.43
2339;BME280;1180;51.438;6.978;2023-04-10T02:49:49;100769.31;;;12.03;59.07
2339;BME280;1180;51.438;6.978;2023-04-10T02:52:14;100769.31;;;12.03;59.27
2339;BME280;1180;51.438;6.978;2023-04-10T02:54:41;100774.69;;;11.98;59.36
2339;BME280;1180;51.438;6.978;2023-04-10T02:57:07;100773.63;;;11.86;59.75
2339;BME280;1180;51.438;6.978;2023-04-10T02:59:32;100773.28;;;11.92;59.45
2339;BME280;1180;51.438;6.978;2023-04-10T03:01:58;100757.38;;;12.02;59.12
2339;BME280;1180;51.438;6.978;2023-04-10T03:04:23;100762.72;;;11.97;58.64
2339;BME280;1180;51.438;6.978;2023-04-10T03:06:49;100756.53;;;12.01;58.48
2339;BME280;1180;51.438;6.978;2023-04-10T03:09:14;100757.41;;;12.00;58.59
2339;BME280;1180;51.438;6.978;2023-04-10T03:11:40;100755.44;;;11.89;58.86
2339;BME280;1180;51.438;6.978;2023-04-10T03:14:07;100761.13;;;11.80;59.07
2339;BME280;1180;51.438;6.978;2023-04-10T03:16:34;100759.47;;;11.79;59.09
2339;BME280;1180;51.438;6.978;2023-04-10T03:18:59;100748.69;;;11.72;59.49
2339;BME280;1180;51.438;6.978;2023-04-10T03:21:25;100739.13;;;11.74;59.77
2339;BME280;1180;51.438;6.978;2023-04-10T03:23:51;100735.94;;;11.70;58.86
2339;BME280;1180;51.438;6.978;2023-04-10T03:26:18;100731.69;;;11.69;59.12
2339;BME280;1180;51.438;6.978;2023-04-10T03:28:43;100726.03;;;11.79;59.08
2339;BME280;1180;51.438;6.978;2023-04-10T03:31:09;100724.38;;;11.78;58.71
2339;BME280;1180;51.438;6.978;2023-04-10T03:33:36;100725.94;;;11.80;58.92
2339;BME280;1180;51.438;6.978;2023-04-10T03:36:03;100719.41;;;11.75;58.35
2339;BME280;1180;51.438;6.978;2023-04-10T03:38:28;100716.53;;;11.65;58.52
2339;BME280;1180;51.438;6.978;2023-04-10T03:40:54;100715.78;;;11.63;58.55
2339;BME280;1180;51.438;6.978;2023-04-10T03:43:22;100711.53;;;11.78;58.57
2339;BME280;1180;51.438;6.978;2023-04-10T03:45:47;100706.97;;;11.67;58.12
2339;BME280;1180;51.438;6.978;2023-04-10T03:48:13;100706.38;;;11.78;57.74
2339;BME280;1180;51.438;6.978;2023-04-10T03:50:39;100710.97;;;11.87;57.40
2339;BME280;1180;51.438;6.978;2023-04-10T03:53:04;100710.81;;;11.90;57.02
2339;BME280;1180;51.438;6.978;2023-04-10T03:55:30;100713.47;;;11.89;56.99
2339;BME280;1180;51.438;6.978;2023-04-10T03:57:56;100711.09;;;11.85;57.25
2339;BME280;1180;51.438;6.978;2023-04-10T04:00:23;100713.47;;;11.89;57.36
2339;BME280;1180;51.438;6.978;2023-04-10T04:02:48;100705.50;;;11.93;57.50
2339;BME280;1180;51.438;6.978;2023-04-10T04:05:14;100700.19;;;11.96;56.85
2339;BME280;1180;51.438;6.978;2023-04-10T04:07:40;100706.13;;;11.82;56.81
2339;BME280;1180;51.438;6.978;2023-04-10T04:10:06;100704.28;;;11.84;57.04
2339;BME280;1180;51.438;6.978;2023-04-10T04:12:31;100705.50;;;11.93;57.05
2339;BME280;1180;51.438;6.978;2023-04-10T04:14:56;100700.25;;;11.80;56.97
2339;BME280;1180;51.438;6.978;2023-04-10T04:17:22;100700.25;;;11.95;56.96
2339;BME280;1180;51.438;6.978;2023-04-10T04:19:47;100698.97;;;11.88;56.71
2339;BME280;1180;51.438;6.978;2023-04-10T04:22:14;100699.00;;;11.72;56.86
2339;BME280;1180;51.438;6.978;2023-04-10T04:24:39;100698.19;;;11.71;56.85
2339;BME280;1180;51.438;6.978;2023-04-10T04:27:05;100699.22;;;11.83;57.29
2339;BME280;1180;51.438;6.978;2023-04-10T04:29:30;100691.78;;;11.78;56.60
2339;BME280;1180;51.438;6.978;2023-04-10T04:31:55;100694.75;;;11.87;56.75
2339;BME280;1180;51.438;6.978;2023-04-10T04:34:21;100690.59;;;11.84;56.55
2339;BME280;1180;51.438;6.978;2023-04-10T04:36:46;100688.56;;;11.89;56.24
2339;BME280;1180;51.438;6.978;2023-04-10T04:39:12;100689.66;;;11.85;56.27
2339;BME280;1180;51.438;6.978;2023-04-10T04:41:37;100688.56;;;11.89;56.15
2339;BME280;1180;51.438;6.978;2023-04-10T04:44:04;100683.00;;;11.97;55.90
2339;BME280;1180;51.438;6.978;2023-04-10T04:46:29;100683.16;;;11.94;55.78
2339;BME280;1180;51.438;6.978;2023-04-10T04:48:55;100686.41;;;11.97;55.88
2339;BME280;1180;51.438;6.978;2023-04-10T04:51:20;100679.44;;;11.99;55.01
2339;BME280;1180;51.438;6.978;2023-04-10T04:53:45;100676.31;;;11.94;55.88
2339;BME280;1180;51.438;6.978;2023-04-10T04:56:11;100683.72;;;11.99;55.66
2339;BME280;1180;51.438;6.978;2023-04-10T04:58:36;100680.63;;;12.08;55.59
2339;BME280;1180;51.438;6.978;2023-04-10T05:01:02;100688.03;;;12.15;55.23
2339;BME280;1180;51.438;6.978;2023-04-10T05:03:27;100683.63;;;12.17;54.96
2339;BME280;1180;51.438;6.978;2023-04-10T05:05:54;100679.19;;;12.19;54.94
2339;BME280;1180;51.438;6.978;2023-04-10T05:08:19;100680.84;;;12.20;54.89
2339;BME280;1180;51.438;6.978;2023-04-10T05:10:45;100681.47;;;12.23;55.36
2339;BME280;1180;51.438;6.978;2023-04-10T05:13:11;100679.19;;;12.19;55.29
2339;BME280;1180;51.438;6.978;2023-04-10T05:15:37;100677.56;;;12.18;55.47
2339;BME280;1180;51.438;6.978;2023-04-10T05:18:03;100662.22;;;12.31;55.54
2339;BME280;1180;51.438;6.978;2023-04-10T05:20:29;100668.00;;;12.20;55.14
2339;BME280;1180;51.438;6.978;2023-04-10T05:22:54;100679.38;;;12.30;54.89
2339;BME280;1180;51.438;6.978;2023-04-10T05:25:20;100676.34;;;12.38;54.46
2339;BME280;1180;51.438;6.978;2023-04-10T05:27:45;100683.44;;;12.49;54.45
2339;BME280;1180;51.438;6.978;2023-04-10T05:30:11;100681.09;;;12.59;54.21
2339;BME280;1180;51.438;6.978;2023-04-10T05:32:37;100685.81;;;12.52;54.09
2339;BME280;1180;51.438;6.978;2023-04-10T05:35:02;100679.47;;;12.43;53.71
2339;BME280;1180;51.438;6.978;2023-04-10T05:37:28;100678.47;;;12.31;54.30
2339;BME280;1180;51.438;6.978;2023-04-10T05:39:53;100683.13;;;12.24;54.33
2339;BME280;1180;51.438;6.978;2023-04-10T05:42:18;100683.44;;;12.49;54.73
2339;BME280;1180;51.438;6.978;2023-04-10T05:44:44;100675.53;;;12.52;53.31
2339;BME280;1180;51.438;6.978;2023-04-10T05:47:10;100675.91;;;12.46;53.14
2339;BME280;1180;51.438;6.978;2023-04-10T05:49:35;100677.81;;;12.56;53.29
2339;BME280;1180;51.438;6.978;2023-04-10T05:52:01;100678.00;;;12.53;53.24
2339;BME280;1180;51.438;6.978;2023-04-10T05:54:26;100674.88;;;12.63;53.28
2339;BME280;1180;51.438;6.978;2023-04-10T05:56:52;100676.53;;;12.64;52.50
2339;BME280;1180;51.438;6.978;2023-04-10T05:59:17;100668.16;;;12.60;52.32
2339;BME280;1180;51.438;6.978;2023-04-10T06:01:43;100668.25;;;12.59;52.48
2339;BME280;1180;51.438;6.978;2023-04-10T06:04:09;100679.09;;;12.64;53.36
2339;BME280;1180;51.438;6.978;2023-04-10T06:06:34;100677.16;;;12.67;53.55
2339;BME280;1180;51.438;6.978;2023-04-10T06:09:00;100675.84;;;12.75;53.60
2339;BME280;1180;51.438;6.978;2023-04-10T06:11:25;100669.50;;;12.80;52.49
2339;BME280;1180;51.438;6.978;2023-04-10T06:13:51;100673.91;;;12.78;52.96
2339;BME280;1180;51.438;6.978;2023-04-10T06:16:17;100659.72;;;12.85;52.41
2339;BME280;1180;51.438;6.978;2023-04-10T06:18:42;100662.06;;;13.31;66.86
2339;BME280;1180;51.438;6.978;2023-04-10T06:21:08;100663.03;;;13.83;63.70
2339;BME280;1180;51.438;6.978;2023-04-10T06:23:33;100651.38;;;13.90;52.94
2339;BME280;1180;51.438;6.978;2023-04-10T06:26:00;100653.53;;;13.70;51.20
2339;BME280;1180;51.438;6.978;2023-04-10T06:28:25;100650.63;;;13.75;53.24
2339;BME280;1180;51.438;6.978;2023-04-10T06:30:51;100651.28;;;13.38;51.84
2339;BME280;1180;51.438;6.978;2023-04-10T06:33:16;100653.09;;;13.51;50.93
2339;BME280;1180;51.438;6.978;2023-04-10T06:35:42;100652.16;;;13.52;50.44
2339;BME280;1180;51.438;6.978;2023-04-10T06:38:07;100653.72;;;13.54;51.12
2339;BME280;1180;51.438;6.978;2023-04-10T06:40:33;100657.22;;;13.53;49.60
2339;BME280;1180;51.438;6.978;2023-04-10T06:42:59;100656.00;;;13.59;50.38
2339;BME280;1180;51.438;6.978;2023-04-10T06:45:25;100657.44;;;13.63;50.28
2339;BME280;1180;51.438;6.978;2023-04-10T06:47:51;100660.25;;;13.60;50.79
2339;BME280;1180;51.438;6.978;2023-04-10T06:50:16;100652.88;;;13.54;51.31
2339;BME280;1180;51.438;6.978;2023-04-10T06:52:43;100656.00;;;13.72;49.98
2339;BME280;1180;51.438;6.978;2023-04-10T06:55:08;100655.72;;;13.77;50.37
2339;BME280;1180;51.438;6.978;2023-04-10T06:57:34;100650.66;;;13.88;50.09
2339;BME280;1180;51.438;6.978;2023-04-10T06:59:59;100649.13;;;13.98;49.74
2339;BME280;1180;51.438;6.978;2023-04-10T07:02:25;100648.91;;;14.01;49.69
2339;BME280;1180;51.438;6.978;2023-04-10T07:04:50;100645.28;;;13.78;49.50
2339;BME280;1180;51.438;6.978;2023-04-10T07:07:16;100630.22;;;13.98;50.30
2339;BME280;1180;51.438;6.978;2023-04-10T07:09:43;100622.47;;;13.98;49.28
2339;BME280;1180;51.438;6.978;2023-04-10T07:12:09;100622.25;;;13.88;49.50
2339;BME280;1180;51.438;6.978;2023-04-10T07:14:34;100629.28;;;13.86;49.89
2339;BME280;1180;51.438;6.978;2023-04-10T07:17:00;100628.97;;;13.78;49.39
2339;BME280;1180;51.438;6.978;2023-04-10T07:19:25;100625.06;;;13.85;50.06
2339;BME280;1180;51.438;6.978;2023-04-10T07:21:51;100618.16;;;13.98;49.42
2339;BME280;1180;51.438;6.978;2023-04-10T07:24:17;100612.78;;;14.14;50.00
2339;BME280;1180;51.438;6.978;2023-04-10T07:26:43;100616.66;;;14.33;49.25
2339;BME280;1180;51.438;6.978;2023-04-10T07:29:09;100609.63;;;14.35;49.10
2339;BME280;1180;51.438;6.978;2023-04-10T07:31:34;100609.66;;;14.22;48.92
2339;BME280;1180;51.438;6.978;2023-04-10T07:34:01;100597.44;;;14.37;49.33
2339;BME280;1180;51.438;6.978;2023-04-10T07:36:27;100596.25;;;14.54;47.87
2339;BME280;1180;51.438;6.978;2023-04-10T07:38:53;100592.94;;;14.52;48.43
2339;BME280;1180;51.438;6.978;2023-04-10T07:41:19;100594.97;;;14.73;48.42
2339;BME280;1180;51.438;6.978;2023-04-10T07:43:45;100590.88;;;14.57;48.58
2339;BME280;1180;51.438;6.978;2023-04-10T07:46:11;100595.28;;;14.68;48.05
2339;BME280;1180;51.438;6.978;2023-04-10T07:48:37;100586.41;;;14.72;48.56
2339;BME280;1180;51.438;6.978;2023-04-10T07:51:02;100582.25;;;14.83;48.01
2339;BME280;1180;51.438;6.978;2023-04-10T07:53:28;100582.81;;;14.86;48.46
2339;BME280;1180;51.438;6.978;2023-04-10T07:55:54;100578.38;;;14.88;47.62
2339;BME280;1180;51.438;6.978;2023-04-10T07:58:20;100566.44;;;14.75;47.58
2339;BME280;1180;51.438;6.978;2023-04-10T08:00:45;100569.19;;;14.84;47.87
2339;BME280;1180;51.438;6.978;2023-04-10T08:03:11;100555.00;;;14.90;48.24
2339;BME280;1180;51.438;6.978;2023-04-10T08:05:37;100557.31;;;15.06;50.56
2339;BME280;1180;51.438;6.978;2023-04-10T08:08:03;100560.75;;;15.18;47.47
2339;BME280;1180;51.438;6.978;2023-04-10T08:10:28;100557.59;;;15.26;46.42
2339;BME280;1180;51.438;6.978;2023-04-10T08:12:54;100555.13;;;15.24;47.39
2339;BME280;1180;51.438;6.978;2023-04-10T08:15:20;100551.25;;;15.30;46.96
2339;BME280;1180;51.438;6.978;2023-04-10T08:17:45;100539.75;;;15.34;46.24
2339;BME280;1180;51.438;6.978;2023-04-10T08:20:11;100553.31;;;15.13;45.88
2339;BME280;1180;51.438;6.978;2023-04-10T08:22:37;100525.38;;;15.19;45.81
2339;BME280;1180;51.438;6.978;2023-04-10T08:25:03;100542.81;;;15.39;46.00
2339;BME280;1180;51.438;6.978;2023-04-10T08:27:30;100529.19;;;15.49;45.97
2339;BME280;1180;51.438;6.978;2023-04-10T08:29:56;100536.69;;;15.52;45.62
2339;BME280;1180;51.438;6.978;2023-04-10T08:32:21;100524.97;;;15.70;45.69
2339;BME280;1180;51.438;6.978;2023-04-10T08:34:48;100529.88;;;15.85;44.75
2339;BME280;1180;51.438;6.978;2023-04-10T08:37:13;100529.44;;;16.02;44.05
2339;BME280;1180;51.438;6.978;2023-04-10T08:39:40;100526.41;;;15.97;43.87
2339;BME280;1180;51.438;6.978;2023-04-10T08:42:06;100513.22;;;16.00;44.26
2339;BME280;1180;51.438;6.978;2023-04-10T08:44:32;100504.00;;;16.08;44.68
2339;BME280;1180;51.438;6.978;2023-04-10T08:46:58;100505.91;;;16.06;44.84
2339;BME280;1180;51.438;6.978;2023-04-10T08:49:40;100496.34;;;16.17;44.15
2339;BME280;1180;51.438;6.978;2023-04-10T08:52:07;100498.59;;;16.11;44.20
2339;BME280;1180;51.438;6.978;2023-04-10T08:54:37;100493.06;;;16.15;44.64
2339;BME280;1180;51.438;6.978;2023-04-10T08:57:06;100496.84;;;16.44;43.60
2339;BME280;1180;51.438;6.978;2023-04-10T08:59:34;100486.13;;;16.49;43.99
2339;BME280;1180;51.438;6.978;2023-04-10T09:01:59;100488.03;;;16.46;44.16
2339;BME280;1180;51.438;6.978;2023-04-10T09:04:25;100479.50;;;16.56;44.09
2339;BME280;1180;51.438;6.978;2023-04-10T09:06:52;100490.19;;;16.63;43.12
2339;BME280;1180;51.438;6.978;2023-04-10T09:09:18;100493.63;;;16.84;43.67
2339;BME280;1180;51.438;6.978;2023-04-10T09:14:26;100481.59;;;16.83;42.67
2339;BME280;1180;51.438;6.978;2023-04-10T09:16:53;100474.78;;;16.61;43.43
2339;BME280;1180;51.438;6.978;2023-04-10T09:19:34;100485.13;;;16.61;43.05
2339;BME280;1180;51.438;6.978;2023-04-10T09:21:59;100481.78;;;16.70;43.13
2339;BME280;1180;51.438;6.978;2023-04-10T09:24:25;100479.41;;;16.79;43.11
2339;BME280;1180;51.438;6.978;2023-04-10T09:26:51;100491.69;;;16.98;43.59
2339;BME280;1180;51.438;6.978;2023-04-10T09:29:17;100494.72;;;17.03;43.39
2339;BME280;1180;51.438;6.978;2023-04-10T09:31:42;100499.91;;;17.03;43.36
2339;BME280;1180;51.438;6.978;2023-04-10T09:36:42;100494.56;;;16.83;43.01
2339;BME280;1180;51.438;6.978;2023-04-10T09:39:11;100492.03;;;16.93;42.57
2339;BME280;1180;51.438;6.978;2023-04-10T09:41:51;100483.59;;;17.12;42.79
2339;BME280;1180;51.438;6.978;2023-04-10T09:44:26;100477.41;;;17.35;41.77
2339;BME280;1180;51.438;6.978;2023-04-10T09:46:53;100474.88;;;17.44;41.39
2339;BME280;1180;51.438;6.978;2023-04-10T09:49:18;100460.56;;;17.50;41.97
2339;BME280;1180;51.438;6.978;2023-04-10T09:51:44;100455.44;;;17.39;42.50
2339;BME280;1180;51.438;6.978;2023-04-10T09:54:11;100455.78;;;17.55;41.66
2339;BME280;1180;51.438;6.978;2023-04-10T09:56:37;100459.06;;;17.57;41.71
2339;BME280;1180;51.438;6.978;2023-04-10T09:59:05;100469.47;;;17.57;42.02
2339;BME280;1180;51.438;6.978;2023-04-10T10:01:32;100449.13;;;17.63;41.67
2339;BME280;1180;51.438;6.978;2023-04-10T10:04:04;100447.06;;;17.56;42.28
2339;BME280;1180;51.438;6.978;2023-04-10T10:06:31;100449.91;;;17.53;41.64
2339;BME280;1180;51.438;6.978;2023-04-10T10:09:06;100454.16;;;17.54;41.79
2339;BME280;1180;51.438;6.978;2023-04-10T10:11:33;100446.28;;;17.75;41.10
2339;BME280;1180;51.438;6.978;2023-04-10T10:14:02;100447.81;;;17.88;40.88
2339;BME280;1180;51.438;6.978;2023-04-10T10:16:48;100436.25;;;18.02;41.06
2339;BME280;1180;51.438;6.978;2023-04-10T10:19:44;100436.41;;;18.10;39.78
2339;BME280;1180;51.438;6.978;2023-04-10T10:22:12;100430.94;;;18.13;40.71
2339;BME280;1180;51.438;6.978;2023-04-10T10:24:38;100418.50;;;18.07;39.79
2339;BME280;1180;51.438;6.978;2023-04-10T10:27:08;100413.69;;;18.22;40.50
2339;BME280;1180;51.438;6.978;2023-04-10T10:29:37;100413.00;;;18.20;40.22
2339;BME280;1180;51.438;6.978;2023-04-10T10:32:05;100402.75;;;18.38;39.74
2339;BME280;1180;51.438;6.978;2023-04-10T10:34:30;100408.38;;;18.43;40.31
2339;BME280;1180;51.438;6.978;2023-04-10T10:36:57;100391.25;;;18.51;40.56
2339;BME280;1180;51.438;6.978;2023-04-10T10:39:31;100388.28;;;18.06;38.57
2339;BME280;1180;51.438;6.978;2023-04-10T10:45:14;100380.63;;;18.24;39.72
2339;BME280;1180;51.438;6.978;2023-04-10T10:47:44;100371.44;;;18.40;39.65
2339;BME280;1180;51.438;6.978;2023-04-10T10:50:11;100372.91;;;18.52;39.02
2339;BME280;1180;51.438;6.978;2023-04-10T10:52:45;100364.22;;;18.33;38.76
2339;BME280;1180;51.438;6.978;2023-04-10T10:55:27;100348.63;;;18.43;38.89
2339;BME280;1180;51.438;6.978;2023-04-10T10:57:58;100347.50;;;18.36;38.86
2339;BME280;1180;51.438;6.978;2023-04-10T11:00:26;100342.81;;;18.59;39.50
2339;BME280;1180;51.438;6.978;2023-04-10T11:05:56;100338.06;;;18.93;39.15
2339;BME280;1180;51.438;6.978;2023-04-10T11:11:06;100317.81;;;18.86;38.19
2339;BME280;1180;51.438;6.978;2023-04-10T11:13:34;100311.88;;;18.66;38.53
2339;BME280;1180;51.438;6.978;2023-04-10T11:16:01;100310.75;;;18.79;37.81
2339;BME280;1180;51.438;6.978;2023-04-10T11:21:11;100307.16;;;18.89;38.35
2339;BME280;1180;51.438;6.978;2023-04-10T11:31:32;100300.13;;;19.28;37.71
2339;BME280;1180;51.438;6.978;2023-04-10T11:34:02;100292.47;;;19.44;37.87
2339;BME280;1180;51.438;6.978;2023-04-10T11:36:29;100291.00;;;19.60;37.68
2339;BME280;1180;51.438;6.978;2023-04-10T11:38:58;100282.94;;;19.53;36.95
2339;BME280;1180;51.438;6.978;2023-04-10T11:41:31;100278.03;;;19.50;36.65
2339;BME280;1180;51.438;6.978;2023-04-10T11:44:00;100276.66;;;19.56;39.96
2339;BME280;1180;51.438;6.978;2023-04-10T11:46:26;100269.63;;;19.56;37.48
2339;BME280;1180;51.438;6.978;2023-04-10T11:48:57;100263.31;;;19.59;37.53
2339;BME280;1180;51.438;6.978;2023-04-10T11:51:23;100255.72;;;19.66;39.08
2339;BME280;1180;51.438;6.978;2023-04-10T11:53:48;100260.63;;;19.69;37.37
2339;BME280;1180;51.438;6.978;2023-04-10T11:56:15;100254.75;;;19.67;36.93
2339;BME280;1180;51.438;6.978;2023-04-10T11:58:41;100255.22;;;19.62;35.95
2339;BME280;1180;51.438;6.978;2023-04-10T12:01:06;100255.09;;;19.72;36.49
2339;BME280;1180;51.438;6.978;2023-04-10T12:03:40;100250.66;;;19.64;36.42
2339;BME280;1180;51.438;6.978;2023-04-10T12:06:12;100242.97;;;19.81;36.42
2339;BME280;1180;51.438;6.978;2023-04-10T12:08:55;100230.47;;;20.02;35.78
2339;BME280;1180;51.438;6.978;2023-04-10T12:11:23;100220.38;;;19.81;35.55
2339;BME280;1180;51.438;6.978;2023-04-10T12:13:55;100228.91;;;19.47;35.91
2339;BME280;1180;51.438;6.978;2023-04-10T12:16:24;100226.28;;;19.65;36.17
2339;BME280;1180;51.438;6.978;2023-04-10T12:18:51;100217.59;;;19.83;36.18
2339;BME280;1180;51.438;6.978;2023-04-10T12:21:17;100218.50;;;19.91;36.40
2339;BME280;1180;51.438;6.978;2023-04-10T12:23:42;100213.00;;;19.95;35.65
2339;BME280;1180;51.438;6.978;2023-04-10T12:26:17;100210.16;;;20.06;35.67
2339;BME280;1180;51.438;6.978;2023-04-10T12:28:51;100195.63;;;20.03;35.59
2339;BME280;1180;51.438;6.978;2023-04-10T12:31:17;100191.91;;;19.88;35.28
2339;BME280;1180;51.438;6.978;2023-04-10T12:33:44;100198.09;;;19.87;36.28
2339;BME280;1180;51.438;6.978;2023-04-10T12:36:20;100188.47;;;20.05;35.91
2339;BME280;1180;51.438;6.978;2023-04-10T12:38:46;100193.78;;;20.22;35.93
2339;BME280;1180;51.438;6.978;2023-04-10T12:41:11;100182.72;;;20.28;35.96
2339;BME280;1180;51.438;6.978;2023-04-10T12:43:40;100177.63;;;20.18;36.02
2339;BME280;1180;51.438;6.978;2023-04-10T12:46:08;100167.41;;;20.25;35.82
2339;BME280;1180;51.438;6.978;2023-04-10T12:48:34;100160.09;;;20.37;35.89
2339;BME280;1180;51.438;6.978;2023-04-10T12:51:00;100164.31;;;20.30;35.68
2339;BME280;1180;51.438;6.978;2023-04-10T12:53:25;100164.88;;;20.50;36.24
2339;BME280;1180;51.438;6.978;2023-04-10T12:56:04;100157.72;;;20.52;35.78
2339;BME280;1180;51.438;6.978;2023-04-10T12:58:33;100149.28;;;20.58;34.54
2339;BME280;1180;51.438;6.978;2023-04-10T13:01:02;100139.63;;;20.51;34.87
2339;BME280;1180;51.438;6.978;2023-04-10T13:03:29;100141.56;;;20.40;34.45
2339;BME280;1180;51.438;6.978;2023-04-10T13:05:55;100129.97;;;20.34;35.19
2339;BME280;1180;51.438;6.978;2023-04-10T13:08:23;100114.97;;;20.28;35.55
2339;BME280;1180;51.438;6.978;2023-04-10T13:10:49;100119.00;;;20.14;35.21
2339;BME280;1180;51.438;6.978;2023-04-10T13:13:15;100123.56;;;20.12;35.37
2339;BME280;1180;51.438;6.978;2023-04-10T13:15:41;100129.13;;;20.26;34.37
2339;BME280;1180;51.438;6.978;2023-04-10T13:18:07;100122.34;;;20.41;35.03
2339;BME280;1180;51.438;6.978;2023-04-10T13:20:34;100121.84;;;20.46;34.87
2339;BME280;1180;51.438;6.978;2023-04-10T13:23:00;100121.88;;;20.54;35.54
2339;BME280;1180;51.438;6.978;2023-04-10T13:25:31;100106.78;;;20.74;35.27
2339;BME280;1180;51.438;6.978;2023-04-10T13:27:58;100112.16;;;20.81;34.96
2339;BME280;1180;51.438;6.978;2023-04-10T13:30:24;100106.72;;;20.58;35.07
2339;BME280;1180;51.438;6.978;2023-04-10T13:32:49;100092.25;;;20.72;35.02
2339;BME280;1180;51.438;6.978;2023-04-10T13:35:15;100090.09;;;20.51;34.94
2339;BME280;1180;51.438;6.978;2023-04-10T13:37:40;100085.34;;;20.29;35.53
2339;BME280;1180;51.438;6.978;2023-04-10T13:40:07;100086.00;;;20.31;34.93
2339;BME280;1180;51.438;6.978;2023-04-10T13:42:33;100071.50;;;20.37;35.13
2339;BME280;1180;51.438;6.978;2023-04-10T13:44:58;100058.78;;;20.26;35.10